createdAt,value
2022-12-15T00:02:27.702Z,24.55
2022-12-15T00:05:13.817Z,25.30
2022-12-15T00:07:59.480Z,27.17
2022-12-15T00:10:45.540Z,25.60
2022-12-15T00:13:31.996Z,27.00
2022-12-15T00:16:18.346Z,26.23
2022-12-15T00:19:04.687Z,27.90
2022-12-15T00:21:50.762Z,26.85
2022-12-15T00:24:36.640Z,26.35
2022-12-15T00:27:22.534Z,28.10
2022-12-15T00:30:08.462Z,28.25
2022-12-15T00:32:54.643Z,28.75
2022-12-15T00:35:40.350Z,26.90
2022-12-15T00:38:30.982Z,27.38
2022-12-15T00:41:01.076Z,24.80
2022-12-15T00:43:29.839Z,26.67
2022-12-15T00:46:16.170Z,25.20
2022-12-15T00:48:43.430Z,25.70
2022-12-15T00:51:10.728Z,25.35
2022-12-15T00:53:57.096Z,26.73
2022-12-15T00:56:42.912Z,25.30
2022-12-15T00:59:28.687Z,27.02
2022-12-15T01:02:14.858Z,27.23
2022-12-15T01:05:00.919Z,29.38
2022-12-15T01:07:49.633Z,26.23
2022-12-15T01:10:36.049Z,24.77
2022-12-15T01:13:22.679Z,23.85
2022-12-15T01:16:08.701Z,24.30
2022-12-15T01:18:54.551Z,23.80
2022-12-15T01:21:24.619Z,25.23
2022-12-15T01:23:52.393Z,23.33
2022-12-15T01:26:19.560Z,26.90
2022-12-15T01:28:46.731Z,24.15
2022-12-15T01:31:14.327Z,27.48
2022-12-15T01:33:43.716Z,25.58
2022-12-15T01:36:11.456Z,27.77
2022-12-15T01:38:38.592Z,27.23
2022-12-15T01:41:06.958Z,25.50
2022-12-15T01:43:35.930Z,27.00
2022-12-15T01:46:05.510Z,26.40
2022-12-15T01:48:50.764Z,28.67
2022-12-15T01:51:34.683Z,28.05
2022-12-15T01:54:01.803Z,28.50
2022-12-15T01:56:35.344Z,27.83
2022-12-15T01:59:05.649Z,29.33
2022-12-15T02:01:33.175Z,30.15
2022-12-15T02:04:00.405Z,28.27
2022-12-15T02:06:28.936Z,30.05
2022-12-15T02:08:57.808Z,28.08
2022-12-15T02:11:28.001Z,27.73
2022-12-15T02:14:06.211Z,27.33
2022-12-15T02:16:52.244Z,27.70
2022-12-15T02:19:34.095Z,27.10
2022-12-15T02:22:19.851Z,29.25
2022-12-15T02:24:56.238Z,28.17
2022-12-15T02:27:30.920Z,26.20
2022-12-15T02:30:19.439Z,27.20
2022-12-15T02:33:04.975Z,26.02
2022-12-15T02:35:52.431Z,26.63
2022-12-15T02:38:28.787Z,28.25
2022-12-15T02:41:03.238Z,27.70
2022-12-15T02:43:31.321Z,24.95
2022-12-15T02:46:17.287Z,29.05
2022-12-15T02:49:00.245Z,25.20
2022-12-15T02:51:45.230Z,28.17
2022-12-15T02:54:24.414Z,28.58
2022-12-15T02:56:57.574Z,27.17
2022-12-15T02:59:33.236Z,29.90
2022-12-15T03:02:03.621Z,27.85
2022-12-15T03:04:33.813Z,27.02
2022-12-15T03:07:04.016Z,29.13
2022-12-15T03:09:31.837Z,30.40
2022-12-15T03:11:59.434Z,28.27
2022-12-15T03:14:27.017Z,28.30
2022-12-15T03:16:54.767Z,27.55
2022-12-15T03:19:22.325Z,28.63
2022-12-15T03:21:49.455Z,27.63
2022-12-15T03:24:16.575Z,28.90
2022-12-15T03:26:43.850Z,29.42
2022-12-15T03:29:11.077Z,27.88
2022-12-15T03:31:38.285Z,29.63
2022-12-15T03:34:05.460Z,28.58
2022-12-15T03:36:32.627Z,26.73
2022-12-15T03:38:59.818Z,28.05
2022-12-15T03:41:26.993Z,25.30
2022-12-15T03:43:54.152Z,30.67
2022-12-15T03:46:21.438Z,28.25
2022-12-15T03:48:48.574Z,29.27
2022-12-15T03:51:15.786Z,31.23
2022-12-15T03:53:42.995Z,29.20
2022-12-15T03:56:10.222Z,29.23
2022-12-15T03:58:37.356Z,28.02
2022-12-15T04:01:19.304Z,30.67
2022-12-15T04:03:46.592Z,30.08
2022-12-15T04:06:13.863Z,27.48
2022-12-15T04:08:41.009Z,26.13
2022-12-15T04:11:08.156Z,27.58
2022-12-15T04:13:35.292Z,29.92
2022-12-15T04:16:03.237Z,29.52
2022-12-15T04:18:30.574Z,26.67
2022-12-15T04:20:57.779Z,29.40
2022-12-15T04:23:25.183Z,27.02
2022-12-15T04:26:10.872Z,29.13
2022-12-15T04:28:56.788Z,26.15
2022-12-15T04:31:47.600Z,26.30
2022-12-15T04:34:41.343Z,26.25
2022-12-15T04:37:29.016Z,27.10
2022-12-15T04:40:15.513Z,26.00
2022-12-15T04:43:02.506Z,26.08
2022-12-15T04:45:48.446Z,26.05
2022-12-15T04:48:34.571Z,25.08
2022-12-15T04:51:22.731Z,24.23
2022-12-15T04:54:09.696Z,24.00
2022-12-15T04:56:55.592Z,22.30
2022-12-15T04:59:41.320Z,22.27
2022-12-15T05:02:27.389Z,21.50
2022-12-15T05:05:13.423Z,23.27
2022-12-15T05:07:59.225Z,20.10
2022-12-15T05:10:45.081Z,23.33
2022-12-15T05:13:31.209Z,23.33
2022-12-15T05:16:17.495Z,23.20
2022-12-15T05:19:03.316Z,25.13
2022-12-15T05:21:49.088Z,24.33
2022-12-15T05:24:34.856Z,22.70
2022-12-15T05:27:20.556Z,26.75
2022-12-15T05:30:06.379Z,26.90
2022-12-15T05:32:33.928Z,25.88
2022-12-15T05:35:01.567Z,26.17
2022-12-15T05:37:28.928Z,25.17
2022-12-15T05:39:56.137Z,27.98
2022-12-15T05:42:23.416Z,26.60
2022-12-15T05:44:50.594Z,24.25
2022-12-15T05:47:17.767Z,27.80
2022-12-15T05:49:44.943Z,26.85
2022-12-15T05:52:12.350Z,25.70
2022-12-15T05:54:39.528Z,26.55
2022-12-15T05:57:06.872Z,26.75
2022-12-15T05:59:34.035Z,20.23
2022-12-15T06:02:01.308Z,26.25
2022-12-15T06:04:28.620Z,26.05
2022-12-15T06:06:55.812Z,24.85
2022-12-15T06:09:22.920Z,25.30
2022-12-15T06:11:50.060Z,25.80
2022-12-15T06:14:17.199Z,23.45
2022-12-15T06:16:50.068Z,26.25
2022-12-15T06:19:18.450Z,27.05
2022-12-15T06:21:45.655Z,27.42
2022-12-15T06:24:12.882Z,27.27
2022-12-15T06:26:40.792Z,26.17
2022-12-15T06:29:08.827Z,27.35
2022-12-15T06:31:36.641Z,27.45
2022-12-15T06:34:06.164Z,25.67
2022-12-15T06:36:33.383Z,25.63
2022-12-15T06:39:01.141Z,26.00
2022-12-15T06:41:30.331Z,24.67
2022-12-15T06:43:57.926Z,24.77
2022-12-15T06:46:25.957Z,25.27
2022-12-15T06:48:53.194Z,24.95
2022-12-15T06:51:20.420Z,27.40
2022-12-15T06:53:54.106Z,27.33
2022-12-15T06:56:33.695Z,27.50
2022-12-15T06:59:02.139Z,24.30
2022-12-15T07:01:30.285Z,27.55
2022-12-15T07:04:00.106Z,26.73
2022-12-15T07:06:28.475Z,28.15
2022-12-15T07:08:56.729Z,26.40
2022-12-15T07:11:24.531Z,26.67
2022-12-15T07:13:52.439Z,26.63
2022-12-15T07:16:20.437Z,22.92
2022-12-15T07:18:47.737Z,25.35
2022-12-15T07:21:14.843Z,24.10
2022-12-15T07:23:58.223Z,24.05
2022-12-15T07:26:26.255Z,26.05
2022-12-15T07:28:54.114Z,25.42
2022-12-15T07:31:21.946Z,19.83
2022-12-15T07:33:49.362Z,26.35
2022-12-15T07:36:16.788Z,26.30
2022-12-15T07:38:50.037Z,25.30
2022-12-15T07:41:18.234Z,24.98
2022-12-15T07:43:46.619Z,27.42
2022-12-15T07:46:13.962Z,28.38
2022-12-15T07:48:41.236Z,24.00
2022-12-15T07:51:15.576Z,26.45
2022-12-15T07:53:46.590Z,26.42
2022-12-15T07:56:14.098Z,27.50
2022-12-15T07:58:41.920Z,27.00
2022-12-15T08:01:11.085Z,24.83
2022-12-15T08:03:39.584Z,27.52
2022-12-15T08:06:08.307Z,23.65
2022-12-15T08:08:35.987Z,27.50
2022-12-15T08:11:07.203Z,27.23
2022-12-15T08:16:22.352Z,25.33
2022-12-15T08:18:49.862Z,27.83
2022-12-15T08:21:17.104Z,23.75
2022-12-15T08:23:44.254Z,26.80
2022-12-15T08:26:13.048Z,27.10
2022-12-15T08:28:40.710Z,24.35
2022-12-15T08:31:09.886Z,24.38
2022-12-15T08:33:37.765Z,24.65
2022-12-15T08:36:06.778Z,24.13
2022-12-15T08:38:34.820Z,25.92
2022-12-15T08:41:12.044Z,23.58
2022-12-15T08:43:45.842Z,23.02
2022-12-15T08:46:15.901Z,26.00
2022-12-15T08:48:43.126Z,26.50
2022-12-15T08:51:10.663Z,26.23
2022-12-15T08:53:39.077Z,25.95
2022-12-15T08:56:10.429Z,24.75
2022-12-15T08:58:37.578Z,26.70
2022-12-15T09:01:06.421Z,24.55
2022-12-15T09:03:37.163Z,25.23
2022-12-15T09:06:05.510Z,23.73
2022-12-15T09:08:33.072Z,24.10
2022-12-15T09:11:00.839Z,23.83
2022-12-15T09:13:28.818Z,24.42
2022-12-15T09:16:09.397Z,23.08
2022-12-15T09:18:38.038Z,19.55
2022-12-15T09:21:07.178Z,21.70
2022-12-15T09:23:35.673Z,24.92
2022-12-15T09:26:04.151Z,24.17
2022-12-15T09:28:32.202Z,25.70
2022-12-15T09:31:05.151Z,25.27
2022-12-15T09:33:33.035Z,24.10
2022-12-15T09:36:00.649Z,22.13
2022-12-15T09:38:28.066Z,24.25
2022-12-15T09:40:55.229Z,24.17
2022-12-15T09:43:35.756Z,24.98
2022-12-15T09:46:18.610Z,23.58
2022-12-15T09:48:46.214Z,22.50
2022-12-15T09:51:15.389Z,24.02
2022-12-15T09:53:54.615Z,20.50
2022-12-15T09:56:27.740Z,24.38
2022-12-15T10:01:38.049Z,19.85
2022-12-15T10:04:13.013Z,23.17
2022-12-15T10:06:50.998Z,18.73
2022-12-15T10:09:22.729Z,22.92
2022-12-15T10:11:58.094Z,20.85
2022-12-15T10:14:33.636Z,23.30
2022-12-15T10:17:01.111Z,23.90
2022-12-15T10:19:50.156Z,23.77
2022-12-15T10:22:20.677Z,17.42
2022-12-15T10:27:59.621Z,22.67
2022-12-15T10:30:27.071Z,24.83
2022-12-15T10:33:08.830Z,24.35
2022-12-15T10:35:37.070Z,21.47
2022-12-15T10:38:05.563Z,25.20
2022-12-15T10:40:45.368Z,25.52
2022-12-15T10:43:28.820Z,20.52
2022-12-15T10:46:05.462Z,25.80
2022-12-15T10:48:32.829Z,23.95
2022-12-15T10:51:18.174Z,23.48
2022-12-15T10:53:45.541Z,23.23
2022-12-15T10:56:26.110Z,26.88
2022-12-15T10:58:59.916Z,25.90
2022-12-15T11:01:29.228Z,25.27
2022-12-15T11:03:57.279Z,23.52
2022-12-15T11:06:26.600Z,26.08
2022-12-15T11:08:55.217Z,26.08
2022-12-15T11:12:04.019Z,27.33
2022-12-15T11:14:43.766Z,25.23
2022-12-15T11:17:14.834Z,25.48
2022-12-15T11:19:55.214Z,26.20
2022-12-15T11:22:43.163Z,22.13
2022-12-15T11:25:23.349Z,26.98
2022-12-15T11:27:52.703Z,21.90
2022-12-15T11:30:22.812Z,20.17
2022-12-15T11:32:53.599Z,25.05
2022-12-15T11:35:33.008Z,25.55
2022-12-15T11:38:06.516Z,26.33
2022-12-15T11:40:40.830Z,25.67
2022-12-15T11:43:32.741Z,26.05
2022-12-15T11:46:09.487Z,27.40
2022-12-15T11:48:47.396Z,25.73
2022-12-15T11:51:20.349Z,23.73
2022-12-15T11:54:06.674Z,26.38
2022-12-15T11:56:33.779Z,27.80
2022-12-15T11:59:19.860Z,25.55
2022-12-15T12:02:03.354Z,26.65
2022-12-15T12:04:34.488Z,25.98
2022-12-15T12:07:07.661Z,24.15
2022-12-15T12:09:36.647Z,26.45
2022-12-15T12:12:08.617Z,27.48
2022-12-15T12:14:39.070Z,25.70
2022-12-15T12:17:14.567Z,26.70
2022-12-15T12:19:50.659Z,23.83
2022-12-15T12:22:37.869Z,21.20
2022-12-15T12:25:11.169Z,21.80
2022-12-15T12:27:53.036Z,22.25
2022-12-15T12:30:28.464Z,28.00
2022-12-15T12:33:10.241Z,23.35
2022-12-15T12:35:46.703Z,23.70
2022-12-15T12:38:20.236Z,20.33
2022-12-15T12:40:47.368Z,21.20
2022-12-15T12:43:34.355Z,21.42
2022-12-15T12:46:11.265Z,23.73
2022-12-15T12:48:48.519Z,22.85
2022-12-15T12:51:23.151Z,21.88
2022-12-15T12:53:50.775Z,24.13
2022-12-15T12:56:32.093Z,21.67
2022-12-15T12:58:59.280Z,22.15
2022-12-15T13:01:28.863Z,20.05
2022-12-15T13:04:06.736Z,16.98
2022-12-15T13:06:37.077Z,22.23
2022-12-15T13:09:19.345Z,21.90
2022-12-15T13:11:46.592Z,23.83
2022-12-15T13:14:24.160Z,19.15
2022-12-15T13:17:24.836Z,20.08
2022-12-15T13:19:59.307Z,18.90
2022-12-15T13:22:36.767Z,18.52
2022-12-15T13:25:23.869Z,19.23
2022-12-15T13:27:57.817Z,18.63
2022-12-15T13:30:25.029Z,19.83
2022-12-15T13:32:53.875Z,21.40
2022-12-15T13:35:31.654Z,18.35
2022-12-15T13:38:03.394Z,18.80
2022-12-15T13:40:33.973Z,19.17
2022-12-15T13:43:01.051Z,21.23
2022-12-15T13:45:48.924Z,22.60
2022-12-15T13:48:33.285Z,20.90
2022-12-15T13:51:18.810Z,21.60
2022-12-15T13:53:49.740Z,20.70
2022-12-15T13:56:37.582Z,23.08
2022-12-15T13:59:07.955Z,22.27
2022-12-15T14:01:35.162Z,22.38
2022-12-15T14:04:15.649Z,17.20
2022-12-15T14:06:55.024Z,23.65
2022-12-15T14:09:24.979Z,22.88
2022-12-15T14:11:54.106Z,23.10
2022-12-15T14:14:26.111Z,24.20
2022-12-15T14:16:55.682Z,24.48
2022-12-15T14:19:22.832Z,23.40
2022-12-15T14:21:56.991Z,22.05
2022-12-15T14:24:40.282Z,21.08
2022-12-15T14:27:08.182Z,23.73
2022-12-15T14:29:35.488Z,21.33
2022-12-15T14:32:03.017Z,18.80
2022-12-15T14:34:36.997Z,20.65
2022-12-15T14:37:07.650Z,20.63
2022-12-15T14:39:43.099Z,20.20
2022-12-15T14:42:23.349Z,22.33
2022-12-15T14:44:54.938Z,15.85
2022-12-15T14:47:30.017Z,17.67
2022-12-15T14:49:58.482Z,21.63
2022-12-15T14:52:36.465Z,16.50
2022-12-15T14:55:05.500Z,18.98
2022-12-15T14:57:41.292Z,20.23
2022-12-15T15:00:27.107Z,19.42
2022-12-15T15:03:18.483Z,16.23
2022-12-15T15:05:48.467Z,19.02
2022-12-15T15:08:16.606Z,17.42
2022-12-15T15:10:44.001Z,17.83
2022-12-15T15:13:21.640Z,21.60
2022-12-15T15:15:53.426Z,11.40
2022-12-15T15:18:23.720Z,20.08
2022-12-15T15:20:53.223Z,18.67
2022-12-15T15:23:20.440Z,20.52
2022-12-15T15:25:55.026Z,17.02
2022-12-15T15:28:27.430Z,21.98
2022-12-15T15:33:24.060Z,16.40
2022-12-15T15:35:56.326Z,13.65
2022-12-15T15:38:29.644Z,18.30
2022-12-15T15:41:00.864Z,17.27
2022-12-15T15:43:29.031Z,21.95
2022-12-15T15:46:06.440Z,20.98
2022-12-15T15:48:35.553Z,21.42
2022-12-15T15:51:03.294Z,21.73
2022-12-15T15:53:32.478Z,22.17
2022-12-15T15:56:00.021Z,18.73
2022-12-15T15:58:27.251Z,20.00
2022-12-15T16:00:54.411Z,23.02
2022-12-15T16:03:21.706Z,22.30
2022-12-15T16:05:49.029Z,15.98
2022-12-15T16:08:17.980Z,14.68
2022-12-15T16:10:46.119Z,20.20
2022-12-15T16:13:13.663Z,21.42
2022-12-15T16:15:40.963Z,22.30
2022-12-15T16:18:08.204Z,21.90
2022-12-15T16:20:36.830Z,18.95
2022-12-15T16:23:17.519Z,23.42
2022-12-15T16:25:51.054Z,20.50
2022-12-15T16:28:20.451Z,21.13
2022-12-15T16:30:48.116Z,18.40
2022-12-15T16:33:15.669Z,22.73
2022-12-15T16:35:43.507Z,16.80
2022-12-15T16:38:23.789Z,23.77
2022-12-15T16:40:51.233Z,23.33
2022-12-15T16:43:21.857Z,22.02
2022-12-15T16:45:49.912Z,22.10
2022-12-15T16:48:17.794Z,20.17
2022-12-15T16:50:46.524Z,20.50
2022-12-15T16:53:16.426Z,18.42
2022-12-15T16:55:44.468Z,23.25
2022-12-15T16:58:15.989Z,18.55
2022-12-15T17:00:43.639Z,23.60
2022-12-15T17:03:18.852Z,21.65
2022-12-15T17:05:49.320Z,21.17
2022-12-15T17:08:21.885Z,20.25
2022-12-15T17:10:50.875Z,19.92
2022-12-15T17:13:36.528Z,20.58
2022-12-15T17:16:05.946Z,21.75
2022-12-15T17:18:33.971Z,20.33
2022-12-15T17:21:03.387Z,18.42
2022-12-15T17:23:31.135Z,21.10
2022-12-15T17:26:22.786Z,22.45
2022-12-15T17:28:45.894Z,16.52
2022-12-15T17:31:27.677Z,21.73
2022-12-15T17:33:57.286Z,21.60
2022-12-15T17:36:26.979Z,19.95
2022-12-15T17:39:02.976Z,20.88
2022-12-15T17:41:58.684Z,21.63
2022-12-15T17:44:33.507Z,20.52
2022-12-15T17:47:02.109Z,21.83
2022-12-15T17:49:35.166Z,21.35
2022-12-15T17:52:03.824Z,16.63
2022-12-15T17:54:31.047Z,19.95
2022-12-15T17:56:58.630Z,22.42
2022-12-15T17:59:25.904Z,19.60
2022-12-15T18:01:57.045Z,20.70
2022-12-15T18:04:24.593Z,19.35
2022-12-15T18:06:55.364Z,19.63
2022-12-15T18:09:26.920Z,21.48
2022-12-15T18:11:54.133Z,17.67
2022-12-15T18:14:23.013Z,17.10
2022-12-15T18:16:50.703Z,21.42
2022-12-15T18:19:17.990Z,19.15
2022-12-15T18:21:45.265Z,22.05
2022-12-15T18:24:17.185Z,19.65
2022-12-15T18:26:44.875Z,24.30
2022-12-15T18:29:18.130Z,20.80
2022-12-15T18:31:47.125Z,16.83
2022-12-15T18:34:16.311Z,18.70
2022-12-15T18:36:43.720Z,24.48
2022-12-15T18:39:17.126Z,22.48
2022-12-15T18:41:44.469Z,18.35
2022-12-15T18:44:25.822Z,20.88
2022-12-15T18:46:55.013Z,21.05
2022-12-15T18:49:22.845Z,21.52
2022-12-15T18:51:50.289Z,21.02
2022-12-15T18:54:18.773Z,20.45
2022-12-15T18:56:45.969Z,22.95
2022-12-15T18:59:17.673Z,16.67
2022-12-15T19:01:46.102Z,18.25
2022-12-15T19:04:13.856Z,23.25
2022-12-15T19:06:41.223Z,21.40
2022-12-15T19:09:16.445Z,22.08
2022-12-15T19:12:05.519Z,15.95
2022-12-15T19:14:42.780Z,18.05
2022-12-15T19:17:33.814Z,19.70
2022-12-15T19:20:20.117Z,18.45
2022-12-15T19:22:48.317Z,20.63
2022-12-15T19:25:25.124Z,15.23
2022-12-15T19:27:58.549Z,14.32
2022-12-15T19:30:27.214Z,19.35
2022-12-15T19:32:54.606Z,22.30
2022-12-15T19:35:22.075Z,17.70
2022-12-15T19:37:50.060Z,18.73
2022-12-15T19:40:22.268Z,16.15
2022-12-15T19:42:49.694Z,14.50
2022-12-15T19:45:18.295Z,18.00
2022-12-15T19:47:45.493Z,15.43
2022-12-15T19:50:20.176Z,19.02
2022-12-15T19:52:49.486Z,17.65
2022-12-15T19:55:17.702Z,17.75
2022-12-15T19:57:44.953Z,22.38
2022-12-15T20:00:21.862Z,19.10
2022-12-15T20:02:51.319Z,15.70
2022-12-15T20:05:20.058Z,22.48
2022-12-15T20:07:47.948Z,21.05
2022-12-15T20:10:24.626Z,21.52
2022-12-15T20:12:53.866Z,21.52
2022-12-15T20:15:22.540Z,19.85
2022-12-15T20:17:56.735Z,20.20
2022-12-15T20:20:25.298Z,22.63
2022-12-15T20:22:54.605Z,15.98
2022-12-15T20:25:24.691Z,20.38
2022-12-15T20:27:51.973Z,18.00
2022-12-15T20:30:20.609Z,16.27
2022-12-15T20:32:48.309Z,18.98
2022-12-15T20:35:19.868Z,17.63
2022-12-15T20:37:47.337Z,20.83
2022-12-15T20:40:17.518Z,22.67
2022-12-15T20:42:44.887Z,15.68
2022-12-15T20:45:16.267Z,21.83
2022-12-15T20:47:44.514Z,19.58
2022-12-15T20:50:26.819Z,20.65
2022-12-15T20:52:55.065Z,20.05
2022-12-15T20:55:22.720Z,15.75
2022-12-15T20:57:49.969Z,21.40
2022-12-15T21:00:20.854Z,21.50
2022-12-15T21:02:48.617Z,21.30
2022-12-15T21:05:17.798Z,15.88
2022-12-15T21:07:45.529Z,20.25
2022-12-15T21:10:13.909Z,21.50
2022-12-15T21:12:41.842Z,19.20
2022-12-15T21:15:15.997Z,19.58
2022-12-15T21:17:43.229Z,21.75
2022-12-15T21:20:11.113Z,20.73
2022-12-15T21:22:38.420Z,18.27
2022-12-15T21:25:15.518Z,21.95
2022-12-15T21:27:42.755Z,20.88
2022-12-15T21:30:17.284Z,19.92
2022-12-15T21:32:44.499Z,19.15
2022-12-15T21:35:14.818Z,20.02
2022-12-15T21:37:42.694Z,17.40
2022-12-15T21:40:16.727Z,21.40
2022-12-15T21:42:43.993Z,20.88
2022-12-15T21:45:29.432Z,20.42
2022-12-15T21:48:15.326Z,20.98
2022-12-15T21:50:44.587Z,22.15
2022-12-15T21:53:16.799Z,20.77
2022-12-15T21:55:45.801Z,21.02
2022-12-15T21:58:20.776Z,21.38
2022-12-15T22:00:47.988Z,22.20
2022-12-15T22:03:15.781Z,21.58
2022-12-15T22:05:43.372Z,17.77
2022-12-15T22:08:15.474Z,21.55
2022-12-15T22:10:43.055Z,22.60
2022-12-15T22:13:13.335Z,17.45
2022-12-15T22:15:40.606Z,21.85
2022-12-15T22:18:11.962Z,21.65
2022-12-15T22:20:39.166Z,20.35
2022-12-15T22:23:06.298Z,23.15
2022-12-15T22:25:33.514Z,22.85
2022-12-15T22:28:00.868Z,24.13
2022-12-15T22:30:28.384Z,22.73
2022-12-15T22:32:55.539Z,23.92
2022-12-15T22:35:25.021Z,24.77
2022-12-15T22:37:56.489Z,24.35
2022-12-15T22:40:24.390Z,24.93
2022-12-15T22:42:55.996Z,24.23
2022-12-15T22:45:26.659Z,21.47
2022-12-15T22:47:55.144Z,24.50
2022-12-15T22:50:24.190Z,24.60
2022-12-15T22:52:51.954Z,25.52
2022-12-15T22:55:20.155Z,26.60
2022-12-15T22:58:08.134Z,24.70
2022-12-15T23:00:35.308Z,25.80
2022-12-15T23:03:03.214Z,26.42
2022-12-15T23:05:30.847Z,25.48
2022-12-15T23:07:59.283Z,26.95
2022-12-15T23:10:45.327Z,25.02
2022-12-15T23:13:15.109Z,25.60
2022-12-15T23:16:01.824Z,27.15
2022-12-15T23:18:29.454Z,22.67
2022-12-15T23:20:57.248Z,25.58
2022-12-15T23:23:25.981Z,24.45
2022-12-15T23:25:54.842Z,17.60
2022-12-15T23:28:22.550Z,20.52
2022-12-15T23:30:52.978Z,23.52
2022-12-15T23:33:20.477Z,23.60
2022-12-15T23:35:48.253Z,26.52
2022-12-15T23:38:15.908Z,24.02
2022-12-15T23:40:51.045Z,17.15
2022-12-15T23:43:20.615Z,21.35
2022-12-15T23:45:55.990Z,23.55
2022-12-15T23:48:23.939Z,22.45
2022-12-15T23:50:51.742Z,20.90
2022-12-15T23:53:20.952Z,23.15
2022-12-15T23:55:48.143Z,26.17
2022-12-15T23:58:15.283Z,23.52
